Weather observations for the past three days for
Santa Ynez, Santa Ynez Airport
Metric (Imperial)
Date Time (pdt) Wind (kph) Vis. (km) Weather Sky Cond. Temperature (ºC) Relative Humidity Wind Chill (°C) Heat Index (°C) Pressure Precipitation (cm)
Air Dwpt 6 hour altimeter (cm) sea level (mb) 1 hr 3 hr 6 hr
Max. Min.
02 11:15 Vrbl 7 16.09 Fair CLR 21 10 50% 76.33 0.0
02 10:55 Vrbl 7 16.09 Fair CLR 20 10 53% 76.35 0.0
02 10:35 Vrbl 7 16.09 Fair CLR 19 11 60% 76.33 0.0
02 10:15 Vrbl 7 16.09 Fair CLR 19 11 60% 76.33 0.0
02 09:55 W 7 16.09 Fair CLR 17 10 64% 76.33 0.0
02 09:35 Vrbl 6 16.09 Fair CLR 16 11 72% 76.33 0.0
02 09:15 S 6 16.09 Fair CLR 16 11 72% 76.33 0.0
02 08:55 Calm 16.09 Fair CLR 15 11 77% 76.35 0.0
02 08:35 E 7 16.09 Fair CLR 14 11 82% 76.33 0.0
02 08:15 E 11 16.09 Fair CLR 13 11 88% 76.33 0.0
02 07:55 E 9 16.09 Fair CLR 12 11 94% 76.33 0.0
02 07:35 Calm 16.09 Fair CLR 10 9 94% 76.35 0.0
02 07:15 Calm 14.48 Fair CLR 9 8 94% 76.33 0.0
02 06:55 NE 6 16.09 Fair CLR 9 8 94% 76.33 0.0
02 06:35 Calm 16.09 A Few Clouds FEW010 9 9 100% 76.35 0.0
02 06:15 Calm 14.48 Mostly Cloudy BKN011 8 8 100% 76.33 0.0
02 05:55 Calm 16.09 A Few Clouds FEW011 9 9 100% 76.33 0.0
02 05:35 Calm 16.09 A Few Clouds FEW011 FEW023 10 9 94% 76.3 0.0
02 05:15 Calm 16.09 Overcast OVC011 10 9 94% 76.3 0.0
02 04:55 Calm 16.09 Mostly Cloudy SCT011 BKN020 10 9 94% 76.28 0.0
02 04:35 Calm 16.09 Partly Cloudy FEW020 SCT028 10 9 94% 76.28 0.0
02 04:15 Calm 16.09 A Few Clouds FEW023 FEW030 9 9 100% 76.28 0.0
02 03:55 Calm 16.09 Fair CLR 10 10 100% 76.28 0.0
02 03:35 Calm 14.48 Fair CLR 9 9 100% 76.28 0.0
02 03:15 Calm 16.09 Fair CLR 10 10 100% 76.3 0.0
02 02:55 N 7 16.09 Fair CLR 10 10 100% 9 76.3 0.0
02 02:35 N 6 16.09 Fair CLR 11 10 94% 76.28 0.0
02 02:15 Calm 16.09 Fair CLR 11 10 94% 76.28 0.0
02 01:55 N 6 16.09 Fair CLR 11 10 94% 76.3 0.0
02 01:35 Calm 16.09 Fair CLR 11 11 100% 76.28 0.0
02 01:15 SE 6 16.09 Fair CLR 11 11 100% 76.3 0.0
02 00:55 Calm 16.09 Fair CLR 12 11 94% 76.3 0.0
02 00:35 NE 6 16.09 Fair CLR 12 11 94% 76.3 0.0
02 00:15 NE 6 16.09 Fair CLR 13 11 88% 76.28 0.0
01 23:55 Calm 16.09 Fair CLR 14 12 88% 76.3 0.0
01 23:35 NW 6 16.09 Partly Cloudy SCT014 14 12 88% 76.3 0.0
01 23:15 Calm 16.09 Overcast OVC014 14 12 88% 76.3 0.0
01 22:55 Calm 16.09 Overcast OVC014 15 13 88% 76.3 0.0
01 22:35 Vrbl 7 16.09 Overcast OVC013 15 13 88% 76.3 0.0
01 22:15 Calm 16.09 Overcast OVC013 15 13 88% 76.3 0.0
01 21:55 Calm 16.09 Overcast OVC015 15 12 82% 76.3 0.0
01 21:35 Calm 16.09 Mostly Cloudy SCT017 BKN024 BKN030 15 12 82% 76.28 0.0
01 21:15 Calm 16.09 Partly Cloudy SCT024 SCT030 14 11 82% 76.28 0.0
01 20:55 W 7 16.09 Partly Cloudy SCT031 15 11 77% 76.25 0.0
01 20:35 W 7 16.09 Partly Cloudy SCT032 15 11 77% 76.25 0.0
01 20:15 W 7 16.09 Mostly Cloudy BKN033 16 10 68% 76.23 0.0
01 19:55 W 13 16.09 Fair CLR 17 10 64% 76.23 0.0
01 19:35 NW 17 16.09 Fair CLR 18 9 56% 76.2 0.0
01 19:15 NW 15 G 26 16.09 Fair CLR 18 9 56% 76.2 0.0
01 18:55 NW 19 16.09 Fair CLR 20 8 46% 76.17 0.0
01 18:35 W 17 G 28 16.09 Fair CLR 21 8 43% 76.15 0.0
01 18:15 W 17 G 26 16.09 Fair CLR 22 8 41% 76.15 0.0
01 17:55 Vrbl 11 G 22 16.09 Fair CLR 22 9 44% 76.15 0.0
01 17:35 W 19 16.09 Fair CLR 23 9 41% 76.12 0.0
01 17:15 W 24 G 33 16.09 Fair CLR 23 9 41% 76.12 0.0
01 16:55 W 22 G 31 16.09 Fair CLR 23 9 41% 76.12 0.0
01 16:35 W 24 G 35 16.09 Fair CLR 24 8 36% 25 76.12 0.0
01 16:15 W 22 G 33 16.09 Fair CLR 24 8 36% 25 76.15 0.0
01 15:55 W 20 G 31 16.09 Fair CLR 24 9 39% 25 76.15 0.0
01 15:35 W 26 16.09 Fair CLR 24 9 39% 25 76.15 0.0
01 15:15 W 22 G 33 16.09 Fair CLR 25 9 36% 26 76.15 0.0
01 14:55 W 28 16.09 Fair CLR 25 9 36% 26 76.15 0.0
01 14:35 W 24 16.09 Fair CLR 25 9 36% 26 76.15 0.0
01 14:15 W 22 16.09 Fair CLR 26 9 34% 26 76.15 0.0
01 13:55 W 22 16.09 Fair CLR 26 9 34% 26 76.15 0.0
01 13:35 W 13 16.09 Fair CLR 25 8 34% 26 76.17 0.0
01 13:15 SW 13 16.09 Fair CLR 25 9 36% 26 76.17 0.0
01 12:55 W 11 16.09 Fair CLR 25 10 39% 26 76.17 0.0
01 12:35 SW 9 16.09 Fair CLR 23 10 44% 76.2 0.0
01 12:15 Calm 16.09 Fair CLR 23 10 44% 76.23 0.0
01 11:55 SW 11 16.09 Fair CLR 22 10 47% 76.25 0.0
01 11:35 Vrbl 7 16.09 Fair CLR 22 9 44% 76.28 0.0
01 11:15 Vrbl 7 16.09 Fair CLR 20 10 53% 76.28 0.0
01 10:55 Vrbl 7 16.09 Fair CLR 19 10 56% 76.28 0.0
01 10:35 Calm 16.09 Fair CLR 19 10 56% 76.28 0.0
01 10:15 N 9 16.09 Fair CLR 18 11 64% 76.28 0.0
01 09:55 Calm 16.09 Fair CLR 17 11 68% 76.28 0.0
01 09:35 NE 6 16.09 Fair CLR 16 11 72% 76.28 0.0
01 09:15 Calm 16.09 Fair CLR 16 11 72% 76.28 0.0
01 08:55 Vrbl 6 16.09 A Few Clouds FEW017 15 11 77% 76.25 0.0
01 08:35 Calm 16.09 Mostly Cloudy BKN017 14 11 82% 76.28 0.0
01 08:15 Calm 16.09 Overcast OVC020 14 11 82% 76.28 0.0
01 07:55 SE 6 16.09 Overcast OVC021 14 11 82% 76.28 0.0
01 07:35 Calm 16.09 Overcast OVC020 13 11 88% 76.25 0.0
01 07:15 Calm 16.09 Overcast OVC021 13 11 88% 76.25 0.0
01 06:55 Calm 16.09 Overcast OVC020 13 11 88% 76.23 0.0
01 06:35 Calm 16.09 Overcast OVC019 13 11 88% 76.23 0.0
01 06:15 SE 6 16.09 Overcast OVC017 13 11 88% 76.2 0.0
01 05:55 SE 7 16.09 Overcast OVC017 13 11 88% 76.2 0.0
01 05:35 Calm 16.09 Overcast OVC016 13 11 88% 76.2 0.0
01 05:15 Calm 16.09 Overcast OVC014 13 11 88% 76.2 0.0
01 04:55 Calm 16.09 Overcast OVC012 13 12 94% 76.17 0.0
01 04:35 SE 7 14.48 Overcast OVC011 13 12 94% 76.17 0.0
01 04:15 Calm 14.48 Overcast OVC011 13 12 94% 76.17 0.0
01 03:55 Calm 14.48 Overcast OVC009 13 12 94% 76.2 0.0
01 03:15 Calm 16.09 Overcast OVC007 12 12 100% 76.2 0.0
01 02:55 Calm 16.09 Overcast OVC007 12 11 94% 76.2 0.0
01 02:35 Calm 16.09 Overcast OVC008 12 11 94% 76.17 0.0
01 02:15 Calm 16.09 Overcast OVC010 11 10 94% 76.17 0.0
01 01:55 N 7 16.09 Overcast OVC012 11 10 94% 76.17 0.0
01 01:35 N 9 16.09 Overcast OVC013 10 9 94% 9 76.17 0.0
01 01:15 N 7 16.09 Overcast OVC013 11 11 100% 76.17 0.0
01 00:55 Calm 16.09 Mostly Cloudy BKN013 BKN020 12 11 94% 76.17 0.0
01 00:35 Calm 16.09 Overcast SCT012 OVC021 12 11 94% 76.17 0.0
01 00:15 NW 7 16.09 Overcast BKN012 OVC022 12 11 94% 76.17 0.0
31 23:55 W 9 16.09 Overcast BKN012 OVC020 12 11 94% 76.17 0.0
31 23:35 Calm 16.09 Overcast FEW012 OVC020 12 11 94% 76.15 0.0
31 23:15 Calm 16.09 Overcast OVC020 12 11 94% 76.15 0.0
31 22:55 W 6 16.09 Overcast SCT013 OVC020 12 11 94% 76.15 0.0
31 22:35 Calm 16.09 Overcast BKN013 OVC020 13 12 94% 76.15 0.0
31 22:15 Calm 16.09 Overcast OVC019 13 11 88% 76.15 0.0
31 21:55 Calm 16.09 Overcast OVC020 13 12 94% 76.15 0.0
31 21:35 Calm 16.09 Overcast OVC020 13 12 94% 76.15 0.0
31 20:55 W 6 16.09 Overcast OVC022 14 12 88% 76.12 0.0
31 20:35 W 11 G 20 16.09 Mostly Cloudy BKN025 BKN030 15 12 82% 76.1 0.0
31 20:15 W 13 G 22 16.09 Partly Cloudy SCT026 15 12 82% 76.07 0.0
31 19:55 W 13 16.09 Fair CLR 16 12 77% 76.05 0.0
31 19:35 W 15 16.09 Fair CLR 17 12 73% 76.02 0.0
31 19:15 W 15 G 24 16.09 Fair CLR 18 12 68% 76 0.0
31 18:55 W 15 G 26 16.09 Fair CLR 19 11 60% 76 0.0
31 18:35 W 15 16.09 Fair CLR 20 11 56% 76 0.0
31 18:15 W 19 16.09 Fair CLR 21 11 53% 75.97 0.0
31 17:55 W 17 16.09 Fair CLR 22 11 50% 75.97 0.0
31 17:35 W 15 G 31 16.09 Fair CLR 22 12 53% 75.97 0.0
31 17:15 W 22 G 33 16.09 Fair CLR 23 12 50% 76 0.0
31 16:35 W 24 16.09 Fair CLR 25 12 44% 26 75.97 0.0
31 16:15 W 22 16.09 Fair CLR 25 12 44% 26 75.97 0.0
31 15:55 W 24 16.09 Fair CLR 25 12 44% 26 75.97 0.0
31 15:35 W 22 G 33 16.09 Fair CLR 26 12 42% 26 75.97 0.0
31 15:15 W 26 16.09 Fair CLR 26 12 42% 26 75.97 0.0
31 14:55 W 20 16.09 Fair CLR 27 12 39% 27 75.97 0.0
31 14:35 W 19 16.09 Fair CLR 27 13 42% 27 75.97 0.0
31 14:15 W 17 16.09 Fair CLR 27 14 45% 27 76 0.0
31 13:55 W 9 16.09 Fair CLR 26 14 48% 26 76.02 0.0
31 13:35 NW 11 16.09 Fair CLR 25 14 51% 26 76.02 0.0
31 13:15 Calm 16.09 Fair CLR 24 14 54% 25 76.05 0.0
31 12:55 Calm 16.09 Fair CLR 23 14 57% 76.07 0.0
31 12:35 W 7 16.09 Fair CLR 22 14 61% 76.1 0.0
31 12:15 W 7 16.09 Fair CLR 22 14 61% 76.12 0.0
31 11:55 Vrbl 9 12.87 Fair CLR 20 13 64% 76.15 0.0
31 11:35 Vrbl 6 16.09 Fair CLR 19 13 68% 76.15 0.0
31 11:15 Calm 16.09 Partly Cloudy SCT014 18 13 73% 76.17 0.0
31 10:55 Vrbl 6 16.09 Overcast OVC013 17 13 77% 76.17 0.0
31 10:35 Vrbl 6 16.09 Overcast OVC013 15 12 82% 76.2 0.0
31 10:15 Calm 16.09 Overcast OVC011 15 12 82% 76.17 0.0
31 09:55 Vrbl 7 16.09 Overcast OVC008 14 12 88% 76.15 0.0
31 09:35 NE 6 16.09 Overcast OVC007 13 12 94% 76.15 0.0
31 09:15 SE 7 9.66 Fog/Mist OVC006 13 12 94% 76.15 0.0
31 08:55 E 7 9.66 Fog/Mist OVC005 13 12 94% 76.15 0.0
31 08:35 NE 7 11.27 Overcast OVC006 13 13 100% 76.15 0.0
31 08:15 NE 7 9.66 Fog/Mist OVC005 12 12 100% 76.15 0.0
31 07:55 Calm 6.44 Fog/Mist OVC004 12 12 100% 76.12 0.0
31 07:35 NE 7 4.02 Fog/Mist OVC003 12 12 100% 76.1 0.0
31 07:15 Calm 2.82 Fog/Mist OVC003 12 12 100% 76.07 0.0
31 06:55 Vrbl 6 3.22 Fog/Mist OVC003 12 12 100% 76.07 0.0
31 06:35 NE 6 4.02 Fog/Mist OVC003 12 12 100% 76.05 0.0
31 06:15 Calm 4.83 Fog/Mist OVC003 12 12 100% 76.05 0.0
31 05:55 Calm 6.44 Fog/Mist OVC003 12 12 100% 76.05 0.0
31 05:35 Calm 6.44 Fog/Mist OVC003 12 12 100% 76.02 0.0
31 05:15 NE 7 4.83 Fog/Mist OVC004 12 12 100% 76.02 0.0
31 04:55 Calm 8.05 Fog/Mist OVC003 12 12 100% 76.02 0.0
31 04:35 NE 7 6.44 Fog/Mist OVC003 12 12 100% 76.02 0.0
31 04:15 NE 7 6.44 Fog/Mist OVC003 12 12 100% 76.02 0.0
31 03:55 NE 7 8.05 Fog/Mist OVC004 12 12 100% 76.02 0.0
31 03:35 Calm 8.05 Fog/Mist OVC004 12 12 100% 76.05 0.0
31 03:15 NE 6 11.27 Overcast OVC004 12 12 100% 76.02 0.0
31 02:55 N 6 11.27 Overcast OVC004 12 12 100% 76.02 0.0
31 02:35 Calm 12.87 Overcast OVC004 12 12 100% 76.02 0.0
31 02:15 N 7 9.66 Fog/Mist OVC004 12 12 100% 76.05 0.0
31 01:55 N 7 8.05 Fog/Mist OVC005 12 12 100% 76.02 0.0
31 01:35 Calm 11.27 Overcast OVC005 13 13 100% 76.05 0.0
31 01:15 Calm 11.27 Overcast OVC006 13 13 100% 76.05 0.0
31 00:55 Calm 11.27 Overcast OVC005 13 13 100% 76.05 0.0
31 00:35 Calm 11.27 Overcast OVC005 12 12 100% 76.05 0.0
31 00:15 Calm 11.27 Overcast OVC005 12 12 100% 76.05 0.0
30 23:55 Calm 11.27 Overcast BKN006 OVC041 12 12 100% 76.05 0.0
30 23:35 Calm 11.27 Overcast OVC040 12 12 100% 76.05 0.0
30 23:15 Calm 12.87 Mostly Cloudy FEW016 BKN040 12 12 100% 76.05 0.0
30 22:55 SW 6 12.87 Mostly Cloudy BKN042 13 12 94% 76.05 0.0
30 22:35 Calm 14.48 Overcast OVC041 13 12 94% 76.05 0.0
30 22:15 Calm 14.48 Overcast OVC042 13 12 94% 76.05 0.0
30 21:55 SW 6 12.87 Overcast OVC040 13 12 94% 76.07 0.0
30 21:35 SW 6 16.09 Overcast OVC039 14 12 88% 76.05 0.0
30 21:15 SW 6 16.09 Overcast OVC041 14 13 94% 76.05 0.0
30 20:55 SW 7 16.09 Overcast OVC041 15 13 88% 76.02 0.0
30 20:35 W 11 16.09 Overcast OVC042 15 13 88% 76 0.0
30 20:15 W 11 16.09 Overcast OVC043 16 13 83% 76 0.0
30 19:55 W 7 16.09 Mostly Cloudy BKN043 16 13 83% 75.97 0.0
30 19:35 SW 7 16.09 Fair CLR 17 13 77% 75.97 0.0
30 19:15 W 15 16.09 Fair CLR 18 13 73% 75.97 0.0
30 18:55 W 13 16.09 Fair CLR 19 12 64% 75.97 0.0
30 18:35 W 15 16.09 Fair CLR 20 12 60% 75.97 0.0
30 18:15 W 15 16.09 Fair CLR 20 12 60% 75.95 0.0
30 17:55 W 17 16.09 Fair CLR 21 12 57% 75.95 0.0
30 17:35 W 15 16.09 Fair CLR 22 12 53% 75.95 0.0
30 17:15 W 20 16.09 Fair CLR 23 12 50% 75.95 0.0
30 16:55 W 19 16.09 Fair CLR 24 13 50% 25 75.92 0.0
30 16:35 W 19 16.09 Fair CLR 24 13 50% 25 75.92 0.0
30 16:15 W 17 16.09 Fair CLR 24 13 50% 25 75.95 0.0
30 15:55 W 20 16.09 Fair CLR 25 13 47% 26 75.95 0.0
30 15:35 W 19 16.09 Fair CLR 25 13 47% 26 75.95 0.0
30 15:15 W 17 16.09 Fair CLR 26 13 45% 26 75.97 0.0
30 14:55 W 20 16.09 Fair CLR 25 13 47% 26 75.97 0.0
30 14:35 W 20 16.09 Fair CLR 25 13 47% 26 76 0.0
30 14:15 W 20 16.09 Fair CLR 25 13 47% 26 76.02 0.0
30 13:55 W 19 16.09 Fair CLR 26 13 45% 26 76.02 0.0
30 13:35 W 20 16.09 Fair CLR 26 13 45% 26 76.02 0.0
30 13:15 W 17 16.09 Fair CLR 25 13 47% 26 76.02 0.0
30 12:55 W 17 16.09 Fair CLR 25 13 47% 26 76.02 0.0
30 12:35 W 13 16.09 Fair CLR 25 13 47% 26 76.05 0.0
30 12:15 Vrbl 11 16.09 Fair CLR 24 13 50% 25 76.05 0.0
30 11:55 W 9 16.09 Fair CLR 23 12 50% 76.07 0.0
30 11:35 W 9 16.09 Fair CLR 22 13 57% 76.07 0.0
Date Time (pdt) Wind (kph) Vis. (km) Weather Sky Cond. Air Dwpt Max. Min. Relative Humidity Wind Chill (°C) Heat Index (°C) altimeter (cm) sea level (mb) 1 hr 3 hr 6 hr
6 hour
Temperature (ºC) Pressure Precipitation (cm)